Station: EBLG - 02/10/2022 19:20Z (il y a 5 minutes)
EBLG 021920Z 28006KT 6000 FEW010 11/10 Q1024 TEMPO 4000 BR
Vent du 280º - 6 kt
Visibilité: 6000 m
Nuages épars à 1000 pieds
Température: +11ºC - Point de rosée: +10ºC - QNH: 1024 hPa
Temporairement
Visibilité: 4000 m (brume)